sensor_id;sensor_type;location;lat;lon;timestamp;temperature;humidity
41876;DHT22;27555;50.808;4.402;2023-05-07T00:00:03;18.20;99.90
41876;DHT22;27555;50.808;4.402;2023-05-07T00:02:29;18.20;99.90
41876;DHT22;27555;50.808;4.402;2023-05-07T00:04:54;18.30;99.90
41876;DHT22;27555;50.808;4.402;2023-05-07T00:07:20;18.30;99.90
41876;DHT22;27555;50.808;4.402;2023-05-07T00:09:46;18.30;99.90
41876;DHT22;27555;50.808;4.402;2023-05-07T00:12:12;18.30;99.90
41876;DHT22;27555;50.808;4.402;2023-05-07T00:14:37;18.20;99.90
41876;DHT22;27555;50.808;4.402;2023-05-07T00:17:03;18.30;99.90
41876;DHT22;27555;50.808;4.402;2023-05-07T00:19:29;18.30;99.90
41876;DHT22;27555;50.808;4.402;2023-05-07T00:21:54;18.30;99.90
41876;DHT22;27555;50.808;4.402;2023-05-07T00:24:21;18.20;99.90
41876;DHT22;27555;50.808;4.402;2023-05-07T00:26:46;18.10;99.90
41876;DHT22;27555;50.808;4.402;2023-05-07T00:29:12;18.20;99.90
41876;DHT22;27555;50.808;4.402;2023-05-07T00:31:38;18.20;99.90
41876;DHT22;27555;50.808;4.402;2023-05-07T00:34:03;18.20;99.90
41876;DHT22;27555;50.808;4.402;2023-05-07T00:36:29;18.20;99.90
41876;DHT22;27555;50.808;4.402;2023-05-07T00:38:58;18.20;99.90
41876;DHT22;27555;50.808;4.402;2023-05-07T00:41:24;18.30;99.90
41876;DHT22;27555;50.808;4.402;2023-05-07T00:43:50;18.30;99.90
41876;DHT22;27555;50.808;4.402;2023-05-07T00:46:17;18.20;99.90
41876;DHT22;27555;50.808;4.402;2023-05-07T00:48:44;18.20;99.90
41876;DHT22;27555;50.808;4.402;2023-05-07T00:51:10;18.20;99.90
41876;DHT22;27555;50.808;4.402;2023-05-07T00:53:37;18.10;99.90
41876;DHT22;27555;50.808;4.402;2023-05-07T00:56:02;18.10;99.90
41876;DHT22;27555;50.808;4.402;2023-05-07T00:58:28;18.10;99.90
41876;DHT22;27555;50.808;4.402;2023-05-07T01:00:54;18.10;99.90
41876;DHT22;27555;50.808;4.402;2023-05-07T01:03:20;18.10;99.90
41876;DHT22;27555;50.808;4.402;2023-05-07T01:05:47;18.10;99.90
41876;DHT22;27555;50.808;4.402;2023-05-07T01:08:14;18.10;99.90
41876;DHT22;27555;50.808;4.402;2023-05-07T01:10:41;18.10;99.90
41876;DHT22;27555;50.808;4.402;2023-05-07T01:13:12;18.10;99.90
41876;DHT22;27555;50.808;4.402;2023-05-07T01:15:38;18.10;99.90
41876;DHT22;27555;50.808;4.402;2023-05-07T01:18:04;18.00;99.90
41876;DHT22;27555;50.808;4.402;2023-05-07T01:20:32;18.00;99.90
41876;DHT22;27555;50.808;4.402;2023-05-07T01:22:58;18.20;99.90
41876;DHT22;27555;50.808;4.402;2023-05-07T01:25:25;18.00;99.90
41876;DHT22;27555;50.808;4.402;2023-05-07T01:27:51;18.00;99.90
41876;DHT22;27555;50.808;4.402;2023-05-07T01:30:17;18.00;99.90
41876;DHT22;27555;50.808;4.402;2023-05-07T01:32:50;17.90;99.90
41876;DHT22;27555;50.808;4.402;2023-05-07T01:35:21;17.90;99.90
41876;DHT22;27555;50.808;4.402;2023-05-07T01:37:48;17.90;99.90
41876;DHT22;27555;50.808;4.402;2023-05-07T01:40:14;17.90;99.90
41876;DHT22;27555;50.808;4.402;2023-05-07T01:42:42;17.80;99.90
41876;DHT22;27555;50.808;4.402;2023-05-07T01:45:09;17.80;99.90
41876;DHT22;27555;50.808;4.402;2023-05-07T01:47:36;17.80;99.90
41876;DHT22;27555;50.808;4.402;2023-05-07T01:50:02;17.80;99.90
41876;DHT22;27555;50.808;4.402;2023-05-07T01:52:28;17.80;99.90
41876;DHT22;27555;50.808;4.402;2023-05-07T01:54:54;17.80;99.90
41876;DHT22;27555;50.808;4.402;2023-05-07T01:57:20;17.90;99.90
41876;DHT22;27555;50.808;4.402;2023-05-07T01:59:46;17.80;99.90
41876;DHT22;27555;50.808;4.402;2023-05-07T02:02:11;17.80;99.90
41876;DHT22;27555;50.808;4.402;2023-05-07T02:04:37;17.80;99.90
41876;DHT22;27555;50.808;4.402;2023-05-07T02:07:03;17.80;99.90
41876;DHT22;27555;50.808;4.402;2023-05-07T02:09:28;17.80;99.90
41876;DHT22;27555;50.808;4.402;2023-05-07T02:11:54;17.70;99.90
41876;DHT22;27555;50.808;4.402;2023-05-07T02:14:19;17.70;99.90
41876;DHT22;27555;50.808;4.402;2023-05-07T02:16:45;17.70;99.90
41876;DHT22;27555;50.808;4.402;2023-05-07T02:19:11;17.70;99.90
41876;DHT22;27555;50.808;4.402;2023-05-07T02:21:37;17.60;99.90
41876;DHT22;27555;50.808;4.402;2023-05-07T02:24:04;17.60;99.90
41876;DHT22;27555;50.808;4.402;2023-05-07T02:26:30;17.70;99.90
41876;DHT22;27555;50.808;4.402;2023-05-07T02:28:55;17.60;99.90
41876;DHT22;27555;50.808;4.402;2023-05-07T02:31:21;17.60;99.90
41876;DHT22;27555;50.808;4.402;2023-05-07T02:33:47;17.60;99.90
41876;DHT22;27555;50.808;4.402;2023-05-07T02:36:13;17.50;99.90
41876;DHT22;27555;50.808;4.402;2023-05-07T02:38:39;17.50;99.90
41876;DHT22;27555;50.808;4.402;2023-05-07T02:41:04;17.40;99.90
41876;DHT22;27555;50.808;4.402;2023-05-07T02:43:30;17.40;99.90
41876;DHT22;27555;50.808;4.402;2023-05-07T02:46:06;17.40;99.90
41876;DHT22;27555;50.808;4.402;2023-05-07T02:48:33;17.30;99.90
41876;DHT22;27555;50.808;4.402;2023-05-07T02:50:59;17.30;99.90
41876;DHT22;27555;50.808;4.402;2023-05-07T02:53:25;17.30;99.90
41876;DHT22;27555;50.808;4.402;2023-05-07T02:55:59;17.30;99.90
41876;DHT22;27555;50.808;4.402;2023-05-07T02:58:25;17.20;99.90
41876;DHT22;27555;50.808;4.402;2023-05-07T03:00:51;17.20;99.90
41876;DHT22;27555;50.808;4.402;2023-05-07T03:03:17;17.20;99.90
41876;DHT22;27555;50.808;4.402;2023-05-07T03:05:43;17.20;99.90
41876;DHT22;27555;50.808;4.402;2023-05-07T03:08:09;17.20;99.90
41876;DHT22;27555;50.808;4.402;2023-05-07T03:10:36;17.10;99.90
41876;DHT22;27555;50.808;4.402;2023-05-07T03:13:02;17.10;99.90
41876;DHT22;27555;50.808;4.402;2023-05-07T03:15:27;17.10;99.90
41876;DHT22;27555;50.808;4.402;2023-05-07T03:17:53;17.10;99.90
41876;DHT22;27555;50.808;4.402;2023-05-07T03:20:19;17.10;99.90
41876;DHT22;27555;50.808;4.402;2023-05-07T03:22:44;17.10;99.90
41876;DHT22;27555;50.808;4.402;2023-05-07T03:25:10;17.20;99.90
41876;DHT22;27555;50.808;4.402;2023-05-07T03:27:36;17.20;99.90
41876;DHT22;27555;50.808;4.402;2023-05-07T03:30:02;17.20;99.90
41876;DHT22;27555;50.808;4.402;2023-05-07T03:32:28;17.20;99.90
41876;DHT22;27555;50.808;4.402;2023-05-07T03:34:53;17.20;99.90
41876;DHT22;27555;50.808;4.402;2023-05-07T03:37:19;17.20;99.90
41876;DHT22;27555;50.808;4.402;2023-05-07T03:39:46;17.20;99.90
41876;DHT22;27555;50.808;4.402;2023-05-07T03:42:13;17.20;99.90
41876;DHT22;27555;50.808;4.402;2023-05-07T03:44:38;17.20;99.90
41876;DHT22;27555;50.808;4.402;2023-05-07T03:47:04;17.10;99.90
41876;DHT22;27555;50.808;4.402;2023-05-07T03:49:30;17.20;99.90
41876;DHT22;27555;50.808;4.402;2023-05-07T03:51:55;17.20;99.90
41876;DHT22;27555;50.808;4.402;2023-05-07T03:54:21;17.30;99.90
41876;DHT22;27555;50.808;4.402;2023-05-07T03:56:47;17.30;99.90
41876;DHT22;27555;50.808;4.402;2023-05-07T03:59:13;17.30;99.90
41876;DHT22;27555;50.808;4.402;2023-05-07T04:01:39;17.20;99.90
41876;DHT22;27555;50.808;4.402;2023-05-07T04:04:05;17.20;99.90
41876;DHT22;27555;50.808;4.402;2023-05-07T04:06:31;17.20;99.90
41876;DHT22;27555;50.808;4.402;2023-05-07T04:08:57;17.30;99.90
41876;DHT22;27555;50.808;4.402;2023-05-07T04:11:23;17.30;99.90
41876;DHT22;27555;50.808;4.402;2023-05-07T04:13:48;17.30;99.90
41876;DHT22;27555;50.808;4.402;2023-05-07T04:16:14;17.40;99.90
41876;DHT22;27555;50.808;4.402;2023-05-07T04:18:40;17.30;99.90
41876;DHT22;27555;50.808;4.402;2023-05-07T04:21:06;17.40;99.90
41876;DHT22;27555;50.808;4.402;2023-05-07T04:23:38;17.40;99.90
41876;DHT22;27555;50.808;4.402;2023-05-07T04:26:04;17.40;99.90
41876;DHT22;27555;50.808;4.402;2023-05-07T04:28:29;17.40;99.90
41876;DHT22;27555;50.808;4.402;2023-05-07T04:30:55;17.40;99.90
41876;DHT22;27555;50.808;4.402;2023-05-07T04:33:21;17.50;99.90
41876;DHT22;27555;50.808;4.402;2023-05-07T04:35:46;17.50;99.90
41876;DHT22;27555;50.808;4.402;2023-05-07T04:38:12;17.60;99.90
41876;DHT22;27555;50.808;4.402;2023-05-07T04:40:38;17.60;99.90
41876;DHT22;27555;50.808;4.402;2023-05-07T04:43:04;17.60;99.90
41876;DHT22;27555;50.808;4.402;2023-05-07T04:45:30;17.60;99.90
41876;DHT22;27555;50.808;4.402;2023-05-07T04:47:55;17.60;99.90
41876;DHT22;27555;50.808;4.402;2023-05-07T04:50:21;17.60;99.90
41876;DHT22;27555;50.808;4.402;2023-05-07T04:52:48;17.50;99.90
41876;DHT22;27555;50.808;4.402;2023-05-07T04:55:14;17.50;99.90
41876;DHT22;27555;50.808;4.402;2023-05-07T04:57:40;17.50;99.90
41876;DHT22;27555;50.808;4.402;2023-05-07T05:00:07;17.50;99.90
41876;DHT22;27555;50.808;4.402;2023-05-07T05:02:34;17.50;99.90
41876;DHT22;27555;50.808;4.402;2023-05-07T05:05:00;17.60;99.90
41876;DHT22;27555;50.808;4.402;2023-05-07T05:07:27;17.60;99.90
41876;DHT22;27555;50.808;4.402;2023-05-07T05:09:54;17.60;99.90
41876;DHT22;27555;50.808;4.402;2023-05-07T05:12:20;17.70;99.90
41876;DHT22;27555;50.808;4.402;2023-05-07T05:14:45;17.70;99.90
41876;DHT22;27555;50.808;4.402;2023-05-07T05:17:11;17.70;99.90
41876;DHT22;27555;50.808;4.402;2023-05-07T05:19:36;17.80;99.90
41876;DHT22;27555;50.808;4.402;2023-05-07T05:22:02;17.90;99.90
41876;DHT22;27555;50.808;4.402;2023-05-07T05:24:29;18.10;99.90
41876;DHT22;27555;50.808;4.402;2023-05-07T05:26:55;18.10;99.90
41876;DHT22;27555;50.808;4.402;2023-05-07T05:29:21;18.10;99.90
41876;DHT22;27555;50.808;4.402;2023-05-07T05:31:47;18.10;99.90
41876;DHT22;27555;50.808;4.402;2023-05-07T05:34:13;18.10;99.90
41876;DHT22;27555;50.808;4.402;2023-05-07T05:36:38;18.10;99.90
41876;DHT22;27555;50.808;4.402;2023-05-07T05:39:04;18.20;99.90
41876;DHT22;27555;50.808;4.402;2023-05-07T05:41:30;18.20;99.90
41876;DHT22;27555;50.808;4.402;2023-05-07T05:43:56;18.20;99.90
41876;DHT22;27555;50.808;4.402;2023-05-07T05:46:22;18.30;99.90
41876;DHT22;27555;50.808;4.402;2023-05-07T05:48:48;18.30;99.90
41876;DHT22;27555;50.808;4.402;2023-05-07T05:51:13;18.30;99.90
41876;DHT22;27555;50.808;4.402;2023-05-07T05:53:39;18.30;99.90
41876;DHT22;27555;50.808;4.402;2023-05-07T05:56:05;18.40;99.90
41876;DHT22;27555;50.808;4.402;2023-05-07T05:58:31;18.40;99.90
41876;DHT22;27555;50.808;4.402;2023-05-07T06:00:57;18.50;99.90
41876;DHT22;27555;50.808;4.402;2023-05-07T06:03:25;18.30;99.90
41876;DHT22;27555;50.808;4.402;2023-05-07T06:05:51;18.30;99.90
41876;DHT22;27555;50.808;4.402;2023-05-07T06:08:16;18.10;99.90
41876;DHT22;27555;50.808;4.402;2023-05-07T06:10:43;18.10;99.90
41876;DHT22;27555;50.808;4.402;2023-05-07T06:13:15;18.20;99.90
41876;DHT22;27555;50.808;4.402;2023-05-07T06:15:41;18.30;99.90
41876;DHT22;27555;50.808;4.402;2023-05-07T06:18:06;18.30;99.90
41876;DHT22;27555;50.808;4.402;2023-05-07T06:20:32;18.10;99.90
41876;DHT22;27555;50.808;4.402;2023-05-07T06:22:57;18.10;99.90
41876;DHT22;27555;50.808;4.402;2023-05-07T06:25:23;18.10;99.90
41876;DHT22;27555;50.808;4.402;2023-05-07T06:27:49;18.10;99.90
41876;DHT22;27555;50.808;4.402;2023-05-07T06:30:14;18.20;99.90
41876;DHT22;27555;50.808;4.402;2023-05-07T06:32:40;18.20;99.90
41876;DHT22;27555;50.808;4.402;2023-05-07T06:35:06;18.20;99.90
41876;DHT22;27555;50.808;4.402;2023-05-07T06:37:32;18.20;99.90
41876;DHT22;27555;50.808;4.402;2023-05-07T06:39:58;18.30;99.90
41876;DHT22;27555;50.808;4.402;2023-05-07T06:42:23;18.10;99.90
41876;DHT22;27555;50.808;4.402;2023-05-07T06:44:50;17.90;99.90
41876;DHT22;27555;50.808;4.402;2023-05-07T06:47:16;17.70;99.90
41876;DHT22;27555;50.808;4.402;2023-05-07T06:49:41;17.70;99.90
41876;DHT22;27555;50.808;4.402;2023-05-07T06:52:07;17.60;99.90
41876;DHT22;27555;50.808;4.402;2023-05-07T06:54:33;17.60;99.90
41876;DHT22;27555;50.808;4.402;2023-05-07T06:56:58;17.70;99.90
41876;DHT22;27555;50.808;4.402;2023-05-07T06:59:24;17.80;99.90
41876;DHT22;27555;50.808;4.402;2023-05-07T07:01:50;17.90;99.90
41876;DHT22;27555;50.808;4.402;2023-05-07T07:04:15;17.90;99.90
41876;DHT22;27555;50.808;4.402;2023-05-07T07:06:41;17.70;99.90
41876;DHT22;27555;50.808;4.402;2023-05-07T07:09:07;17.70;99.90
41876;DHT22;27555;50.808;4.402;2023-05-07T07:11:32;17.70;99.90
41876;DHT22;27555;50.808;4.402;2023-05-07T07:13:58;17.60;99.90
41876;DHT22;27555;50.808;4.402;2023-05-07T07:16:24;17.30;99.90
41876;DHT22;27555;50.808;4.402;2023-05-07T07:18:50;17.10;99.90
41876;DHT22;27555;50.808;4.402;2023-05-07T07:21:16;17.00;99.90
41876;DHT22;27555;50.808;4.402;2023-05-07T07:23:41;17.20;99.90
41876;DHT22;27555;50.808;4.402;2023-05-07T07:26:07;17.60;99.90
41876;DHT22;27555;50.808;4.402;2023-05-07T07:28:32;17.70;99.90
41876;DHT22;27555;50.808;4.402;2023-05-07T07:30:58;17.80;99.90
41876;DHT22;27555;50.808;4.402;2023-05-07T07:33:24;17.80;99.90
41876;DHT22;27555;50.808;4.402;2023-05-07T07:35:49;17.30;99.90
41876;DHT22;27555;50.808;4.402;2023-05-07T07:38:15;17.30;99.90
41876;DHT22;27555;50.808;4.402;2023-05-07T07:40:41;17.40;99.90
41876;DHT22;27555;50.808;4.402;2023-05-07T07:43:06;17.30;99.90
41876;DHT22;27555;50.808;4.402;2023-05-07T07:45:32;17.50;99.90
41876;DHT22;27555;50.808;4.402;2023-05-07T07:47:57;17.70;99.90
41876;DHT22;27555;50.808;4.402;2023-05-07T07:50:23;17.80;99.90
41876;DHT22;27555;50.808;4.402;2023-05-07T07:52:49;18.00;99.90
41876;DHT22;27555;50.808;4.402;2023-05-07T07:55:15;18.20;99.90
41876;DHT22;27555;50.808;4.402;2023-05-07T07:57:46;18.20;99.90
41876;DHT22;27555;50.808;4.402;2023-05-07T08:00:12;18.10;99.90
41876;DHT22;27555;50.808;4.402;2023-05-07T08:02:38;18.10;99.90
41876;DHT22;27555;50.808;4.402;2023-05-07T08:05:03;18.00;99.90
41876;DHT22;27555;50.808;4.402;2023-05-07T08:07:29;18.10;99.90
41876;DHT22;27555;50.808;4.402;2023-05-07T08:09:55;18.20;99.90
41876;DHT22;27555;50.808;4.402;2023-05-07T08:12:20;18.20;99.90
41876;DHT22;27555;50.808;4.402;2023-05-07T08:14:48;18.30;99.90
41876;DHT22;27555;50.808;4.402;2023-05-07T08:17:13;18.30;99.90
41876;DHT22;27555;50.808;4.402;2023-05-07T08:19:41;18.50;99.90
41876;DHT22;27555;50.808;4.402;2023-05-07T08:22:07;18.50;99.90
41876;DHT22;27555;50.808;4.402;2023-05-07T08:24:32;18.50;99.90
41876;DHT22;27555;50.808;4.402;2023-05-07T08:26:58;18.50;99.90
41876;DHT22;27555;50.808;4.402;2023-05-07T08:29:24;18.60;99.90
41876;DHT22;27555;50.808;4.402;2023-05-07T08:31:49;18.60;99.90
41876;DHT22;27555;50.808;4.402;2023-05-07T08:34:15;18.60;99.90
41876;DHT22;27555;50.808;4.402;2023-05-07T08:36:41;18.70;99.90
41876;DHT22;27555;50.808;4.402;2023-05-07T08:39:09;18.60;99.90
41876;DHT22;27555;50.808;4.402;2023-05-07T08:41:36;18.60;99.90
41876;DHT22;27555;50.808;4.402;2023-05-07T08:44:03;18.60;99.90
41876;DHT22;27555;50.808;4.402;2023-05-07T08:46:32;18.40;99.90
41876;DHT22;27555;50.808;4.402;2023-05-07T08:48:58;18.50;99.90
41876;DHT22;27555;50.808;4.402;2023-05-07T08:51:23;18.60;99.90
41876;DHT22;27555;50.808;4.402;2023-05-07T08:53:49;18.70;99.90
41876;DHT22;27555;50.808;4.402;2023-05-07T08:56:16;18.80;99.90
41876;DHT22;27555;50.808;4.402;2023-05-07T08:58:44;18.70;99.90
41876;DHT22;27555;50.808;4.402;2023-05-07T09:01:14;18.50;99.90
41876;DHT22;27555;50.808;4.402;2023-05-07T09:03:40;18.40;99.90
41876;DHT22;27555;50.808;4.402;2023-05-07T09:06:06;18.50;99.90
41876;DHT22;27555;50.808;4.402;2023-05-07T09:08:35;18.70;99.90
41876;DHT22;27555;50.808;4.402;2023-05-07T09:11:01;18.80;99.90
41876;DHT22;27555;50.808;4.402;2023-05-07T09:13:28;18.80;99.90
41876;DHT22;27555;50.808;4.402;2023-05-07T09:15:55;18.80;99.90
41876;DHT22;27555;50.808;4.402;2023-05-07T09:18:21;18.90;99.90
41876;DHT22;27555;50.808;4.402;2023-05-07T09:20:48;18.90;99.90
41876;DHT22;27555;50.808;4.402;2023-05-07T09:23:14;19.00;99.90
41876;DHT22;27555;50.808;4.402;2023-05-07T09:25:40;19.10;99.90
41876;DHT22;27555;50.808;4.402;2023-05-07T09:28:06;19.10;99.90
41876;DHT22;27555;50.808;4.402;2023-05-07T09:30:33;19.20;99.90
41876;DHT22;27555;50.808;4.402;2023-05-07T09:33:01;19.30;99.90
41876;DHT22;27555;50.808;4.402;2023-05-07T09:35:27;19.30;99.90
41876;DHT22;27555;50.808;4.402;2023-05-07T09:37:53;19.40;99.90
41876;DHT22;27555;50.808;4.402;2023-05-07T09:40:28;19.50;99.90
41876;DHT22;27555;50.808;4.402;2023-05-07T09:42:54;19.50;99.90
41876;DHT22;27555;50.808;4.402;2023-05-07T09:45:29;19.50;99.90
41876;DHT22;27555;50.808;4.402;2023-05-07T09:47:57;19.50;99.90
41876;DHT22;27555;50.808;4.402;2023-05-07T09:50:44;19.50;99.90
41876;DHT22;27555;50.808;4.402;2023-05-07T09:53:14;19.50;99.90
41876;DHT22;27555;50.808;4.402;2023-05-07T09:55:41;19.50;99.90
41876;DHT22;27555;50.808;4.402;2023-05-07T09:58:07;19.50;99.90
41876;DHT22;27555;50.808;4.402;2023-05-07T10:00:35;19.60;99.90
41876;DHT22;27555;50.808;4.402;2023-05-07T10:03:01;19.60;99.90
41876;DHT22;27555;50.808;4.402;2023-05-07T10:05:28;19.70;99.90
41876;DHT22;27555;50.808;4.402;2023-05-07T10:07:54;19.60;99.90
41876;DHT22;27555;50.808;4.402;2023-05-07T10:10:21;19.60;99.90
41876;DHT22;27555;50.808;4.402;2023-05-07T10:12:47;19.60;99.90
41876;DHT22;27555;50.808;4.402;2023-05-07T10:15:13;19.20;99.90
41876;DHT22;27555;50.808;4.402;2023-05-07T10:17:41;19.10;99.90
41876;DHT22;27555;50.808;4.402;2023-05-07T10:20:07;19.40;99.90
41876;DHT22;27555;50.808;4.402;2023-05-07T10:22:39;19.50;99.90
41876;DHT22;27555;50.808;4.402;2023-05-07T10:25:19;19.70;99.90
41876;DHT22;27555;50.808;4.402;2023-05-07T10:27:48;19.60;99.90
41876;DHT22;27555;50.808;4.402;2023-05-07T10:33:00;19.50;99.90
41876;DHT22;27555;50.808;4.402;2023-05-07T10:35:36;19.70;99.90
41876;DHT22;27555;50.808;4.402;2023-05-07T10:38:03;19.50;99.90
41876;DHT22;27555;50.808;4.402;2023-05-07T10:40:30;19.50;99.90
41876;DHT22;27555;50.808;4.402;2023-05-07T10:43:01;19.70;99.90
41876;DHT22;27555;50.808;4.402;2023-05-07T10:45:30;19.60;99.90
41876;DHT22;27555;50.808;4.402;2023-05-07T10:48:12;19.50;99.90
41876;DHT22;27555;50.808;4.402;2023-05-07T10:50:42;19.50;99.90
41876;DHT22;27555;50.808;4.402;2023-05-07T10:55:43;19.50;99.90
41876;DHT22;27555;50.808;4.402;2023-05-07T11:00:47;19.50;99.90
41876;DHT22;27555;50.808;4.402;2023-05-07T11:03:13;19.60;99.90
41876;DHT22;27555;50.808;4.402;2023-05-07T11:05:41;19.70;99.90
41876;DHT22;27555;50.808;4.402;2023-05-07T11:08:07;19.70;99.90
41876;DHT22;27555;50.808;4.402;2023-05-07T11:10:53;19.90;99.90
41876;DHT22;27555;50.808;4.402;2023-05-07T11:13:45;20.10;99.90
41876;DHT22;27555;50.808;4.402;2023-05-07T11:16:21;20.00;99.90
41876;DHT22;27555;50.808;4.402;2023-05-07T11:18:56;20.30;99.90
41876;DHT22;27555;50.808;4.402;2023-05-07T11:24:01;20.40;99.90
41876;DHT22;27555;50.808;4.402;2023-05-07T11:26:29;20.40;99.90
41876;DHT22;27555;50.808;4.402;2023-05-07T11:28:55;20.30;99.90
41876;DHT22;27555;50.808;4.402;2023-05-07T11:31:24;20.20;99.90
41876;DHT22;27555;50.808;4.402;2023-05-07T11:36:18;20.20;99.90
41876;DHT22;27555;50.808;4.402;2023-05-07T11:38:44;20.40;99.90
41876;DHT22;27555;50.808;4.402;2023-05-07T11:41:10;20.60;99.90
41876;DHT22;27555;50.808;4.402;2023-05-07T11:43:35;20.70;99.90
41876;DHT22;27555;50.808;4.402;2023-05-07T11:46:11;20.80;99.90
41876;DHT22;27555;50.808;4.402;2023-05-07T11:48:41;20.60;99.90
41876;DHT22;27555;50.808;4.402;2023-05-07T11:51:08;20.40;99.90
41876;DHT22;27555;50.808;4.402;2023-05-07T11:53:42;20.50;99.90
41876;DHT22;27555;50.808;4.402;2023-05-07T11:56:16;20.80;99.90
41876;DHT22;27555;50.808;4.402;2023-05-07T11:58:42;21.00;99.90
41876;DHT22;27555;50.808;4.402;2023-05-07T12:01:10;20.90;99.90
41876;DHT22;27555;50.808;4.402;2023-05-07T12:03:45;21.00;99.90
41876;DHT22;27555;50.808;4.402;2023-05-07T12:06:12;21.10;99.90
41876;DHT22;27555;50.808;4.402;2023-05-07T12:08:39;21.10;99.90
41876;DHT22;27555;50.808;4.402;2023-05-07T12:11:12;21.20;99.90
41876;DHT22;27555;50.808;4.402;2023-05-07T12:13:38;21.30;99.90
41876;DHT22;27555;50.808;4.402;2023-05-07T12:16:04;21.30;99.90
41876;DHT22;27555;50.808;4.402;2023-05-07T12:18:31;21.40;99.90
41876;DHT22;27555;50.808;4.402;2023-05-07T12:20:57;21.50;99.90
41876;DHT22;27555;50.808;4.402;2023-05-07T12:23:23;21.40;99.90
41876;DHT22;27555;50.808;4.402;2023-05-07T12:25:49;21.40;99.90
41876;DHT22;27555;50.808;4.402;2023-05-07T12:28:16;21.50;99.90
41876;DHT22;27555;50.808;4.402;2023-05-07T12:30:43;21.40;99.90
41876;DHT22;27555;50.808;4.402;2023-05-07T12:33:09;21.30;99.90
41876;DHT22;27555;50.808;4.402;2023-05-07T12:35:42;21.30;99.90
41876;DHT22;27555;50.808;4.402;2023-05-07T12:38:13;21.40;99.90
41876;DHT22;27555;50.808;4.402;2023-05-07T12:40:41;21.40;99.90
41876;DHT22;27555;50.808;4.402;2023-05-07T12:43:07;21.30;99.90
41876;DHT22;27555;50.808;4.402;2023-05-07T12:45:40;21.10;99.90
41876;DHT22;27555;50.808;4.402;2023-05-07T12:48:06;21.00;99.90
41876;DHT22;27555;50.808;4.402;2023-05-07T12:50:34;21.10;99.90
41876;DHT22;27555;50.808;4.402;2023-05-07T12:53:00;21.20;99.90
41876;DHT22;27555;50.808;4.402;2023-05-07T12:55:31;21.30;99.90
41876;DHT22;27555;50.808;4.402;2023-05-07T12:58:01;21.30;99.90
41876;DHT22;27555;50.808;4.402;2023-05-07T13:00:37;21.20;99.90
41876;DHT22;27555;50.808;4.402;2023-05-07T13:03:04;21.30;99.90
41876;DHT22;27555;50.808;4.402;2023-05-07T13:05:31;21.20;99.90
41876;DHT22;27555;50.808;4.402;2023-05-07T13:07:57;21.30;99.90
41876;DHT22;27555;50.808;4.402;2023-05-07T13:10:25;21.30;99.90
41876;DHT22;27555;50.808;4.402;2023-05-07T13:12:52;21.20;99.90
41876;DHT22;27555;50.808;4.402;2023-05-07T13:15:18;21.30;99.90
41876;DHT22;27555;50.808;4.402;2023-05-07T13:17:44;21.30;99.90
41876;DHT22;27555;50.808;4.402;2023-05-07T13:20:10;21.30;99.90
41876;DHT22;27555;50.808;4.402;2023-05-07T13:22:37;20.80;99.90
41876;DHT22;27555;50.808;4.402;2023-05-07T13:25:03;20.70;99.90
41876;DHT22;27555;50.808;4.402;2023-05-07T13:27:28;21.00;99.90
41876;DHT22;27555;50.808;4.402;2023-05-07T13:29:56;21.00;99.90
41876;DHT22;27555;50.808;4.402;2023-05-07T13:32:23;21.20;99.90
41876;DHT22;27555;50.808;4.402;2023-05-07T13:34:48;21.10;99.90
41876;DHT22;27555;50.808;4.402;2023-05-07T13:37:14;21.20;99.90
41876;DHT22;27555;50.808;4.402;2023-05-07T13:39:40;21.30;99.90
41876;DHT22;27555;50.808;4.402;2023-05-07T13:42:06;21.20;99.90
41876;DHT22;27555;50.808;4.402;2023-05-07T13:44:32;21.10;99.90
41876;DHT22;27555;50.808;4.402;2023-05-07T13:46:58;21.00;99.90
41876;DHT22;27555;50.808;4.402;2023-05-07T13:49:24;21.00;99.90
41876;DHT22;27555;50.808;4.402;2023-05-07T13:51:49;20.90;99.90
41876;DHT22;27555;50.808;4.402;2023-05-07T13:54:15;20.90;99.90
41876;DHT22;27555;50.808;4.402;2023-05-07T13:56:41;21.20;99.90
41876;DHT22;27555;50.808;4.402;2023-05-07T13:59:07;21.20;99.90
41876;DHT22;27555;50.808;4.402;2023-05-07T14:01:38;21.10;99.90
41876;DHT22;27555;50.808;4.402;2023-05-07T14:04:03;20.70;99.90
41876;DHT22;27555;50.808;4.402;2023-05-07T14:06:29;20.80;99.90
41876;DHT22;27555;50.808;4.402;2023-05-07T14:08:55;20.70;99.90
41876;DHT22;27555;50.808;4.402;2023-05-07T14:11:23;20.30;99.90
41876;DHT22;27555;50.808;4.402;2023-05-07T14:13:48;20.30;99.90
41876;DHT22;27555;50.808;4.402;2023-05-07T14:16:15;20.10;99.90
41876;DHT22;27555;50.808;4.402;2023-05-07T14:18:40;20.30;99.90
41876;DHT22;27555;50.808;4.402;2023-05-07T14:21:06;20.60;99.90
41876;DHT22;27555;50.808;4.402;2023-05-07T14:23:32;20.70;99.90
41876;DHT22;27555;50.808;4.402;2023-05-07T14:25:58;20.70;99.90
41876;DHT22;27555;50.808;4.402;2023-05-07T14:28:24;20.80;99.90
41876;DHT22;27555;50.808;4.402;2023-05-07T14:30:49;20.80;99.90
41876;DHT22;27555;50.808;4.402;2023-05-07T14:33:15;20.90;99.90
41876;DHT22;27555;50.808;4.402;2023-05-07T14:35:41;21.00;99.90
41876;DHT22;27555;50.808;4.402;2023-05-07T14:38:06;21.00;99.90
41876;DHT22;27555;50.808;4.402;2023-05-07T14:40:32;21.10;99.90
41876;DHT22;27555;50.808;4.402;2023-05-07T14:42:58;21.00;99.90
41876;DHT22;27555;50.808;4.402;2023-05-07T14:45:23;20.90;99.90
41876;DHT22;27555;50.808;4.402;2023-05-07T14:47:49;20.80;99.90
41876;DHT22;27555;50.808;4.402;2023-05-07T14:50:15;21.00;99.90
41876;DHT22;27555;50.808;4.402;2023-05-07T14:52:40;20.90;99.90
41876;DHT22;27555;50.808;4.402;2023-05-07T14:55:06;20.80;99.90
41876;DHT22;27555;50.808;4.402;2023-05-07T14:57:32;20.80;99.90
41876;DHT22;27555;50.808;4.402;2023-05-07T15:00:03;20.60;99.90
41876;DHT22;27555;50.808;4.402;2023-05-07T15:02:30;20.60;99.90
41876;DHT22;27555;50.808;4.402;2023-05-07T15:04:55;20.80;99.90
41876;DHT22;27555;50.808;4.402;2023-05-07T15:07:21;20.80;99.90
41876;DHT22;27555;50.808;4.402;2023-05-07T15:09:47;20.70;99.90
41876;DHT22;27555;50.808;4.402;2023-05-07T15:12:13;20.50;99.90
41876;DHT22;27555;50.808;4.402;2023-05-07T15:14:39;20.40;99.90
41876;DHT22;27555;50.808;4.402;2023-05-07T15:17:04;20.50;99.90
41876;DHT22;27555;50.808;4.402;2023-05-07T15:19:30;20.60;99.90
41876;DHT22;27555;50.808;4.402;2023-05-07T15:21:59;20.70;99.90
41876;DHT22;27555;50.808;4.402;2023-05-07T15:24:28;20.60;99.90
41876;DHT22;27555;50.808;4.402;2023-05-07T15:26:54;20.60;99.90
41876;DHT22;27555;50.808;4.402;2023-05-07T15:29:20;20.60;99.90
41876;DHT22;27555;50.808;4.402;2023-05-07T15:31:46;20.60;99.90
41876;DHT22;27555;50.808;4.402;2023-05-07T15:34:12;20.40;99.90
41876;DHT22;27555;50.808;4.402;2023-05-07T15:36:40;20.40;99.90
41876;DHT22;27555;50.808;4.402;2023-05-07T15:39:06;20.50;99.90